sensor_id;sensor_type;location;lat;lon;timestamp;P1;durP1;ratioP1;P2;durP2;ratioP2
295;SDS011;132;48.770;9.200;2023-02-16T00:01:29;27.05;;;12.32;;
295;SDS011;132;48.770;9.200;2023-02-16T00:03:58;23.63;;;12.45;;
295;SDS011;132;48.770;9.200;2023-02-16T00:06:26;26.67;;;14.60;;
295;SDS011;132;48.770;9.200;2023-02-16T00:08:54;25.90;;;13.30;;
295;SDS011;132;48.770;9.200;2023-02-16T00:11:30;23.95;;;12.80;;
295;SDS011;132;48.770;9.200;2023-02-16T00:14:24;28.58;;;14.65;;
295;SDS011;132;48.770;9.200;2023-02-16T00:16:52;28.27;;;14.65;;
295;SDS011;132;48.770;9.200;2023-02-16T00:19:25;23.58;;;13.48;;
295;SDS011;132;48.770;9.200;2023-02-16T00:22:00;28.70;;;14.57;;
295;SDS011;132;48.770;9.200;2023-02-16T00:24:27;30.50;;;13.85;;
295;SDS011;132;48.770;9.200;2023-02-16T00:26:55;27.30;;;13.45;;
295;SDS011;132;48.770;9.200;2023-02-16T00:29:44;26.67;;;14.88;;
295;SDS011;132;48.770;9.200;2023-02-16T00:32:09;27.83;;;14.55;;
295;SDS011;132;48.770;9.200;2023-02-16T00:34:39;29.60;;;14.82;;
295;SDS011;132;48.770;9.200;2023-02-16T00:37:07;26.73;;;14.95;;
295;SDS011;132;48.770;9.200;2023-02-16T00:39:35;31.95;;;14.48;;
295;SDS011;132;48.770;9.200;2023-02-16T00:42:06;29.58;;;14.57;;
295;SDS011;132;48.770;9.200;2023-02-16T00:44:40;24.50;;;13.77;;
295;SDS011;132;48.770;9.200;2023-02-16T00:49:41;28.65;;;14.70;;
295;SDS011;132;48.770;9.200;2023-02-16T00:57:40;27.55;;;14.13;;
295;SDS011;132;48.770;9.200;2023-02-16T01:02:53;26.30;;;13.85;;
295;SDS011;132;48.770;9.200;2023-02-16T01:05:22;27.77;;;14.43;;
295;SDS011;132;48.770;9.200;2023-02-16T01:07:48;23.50;;;13.60;;
295;SDS011;132;48.770;9.200;2023-02-16T01:10:34;23.42;;;12.65;;
295;SDS011;132;48.770;9.200;2023-02-16T01:13:34;26.83;;;13.45;;
295;SDS011;132;48.770;9.200;2023-02-16T01:16:20;25.25;;;13.93;;
295;SDS011;132;48.770;9.200;2023-02-16T01:18:51;24.90;;;13.82;;
295;SDS011;132;48.770;9.200;2023-02-16T01:21:18;28.20;;;13.60;;
295;SDS011;132;48.770;9.200;2023-02-16T01:23:46;24.48;;;13.65;;
295;SDS011;132;48.770;9.200;2023-02-16T01:26:14;27.38;;;13.82;;
295;SDS011;132;48.770;9.200;2023-02-16T01:28:45;26.70;;;14.35;;
295;SDS011;132;48.770;9.200;2023-02-16T01:31:15;32.92;;;16.77;;
295;SDS011;132;48.770;9.200;2023-02-16T01:33:42;29.33;;;14.23;;
295;SDS011;132;48.770;9.200;2023-02-16T01:36:17;28.20;;;13.98;;
295;SDS011;132;48.770;9.200;2023-02-16T01:38:47;28.83;;;15.52;;
295;SDS011;132;48.770;9.200;2023-02-16T01:41:34;26.27;;;14.93;;
295;SDS011;132;48.770;9.200;2023-02-16T01:44:24;29.52;;;14.43;;
295;SDS011;132;48.770;9.200;2023-02-16T01:49:57;32.17;;;15.90;;
295;SDS011;132;48.770;9.200;2023-02-16T01:52:31;28.63;;;14.90;;
295;SDS011;132;48.770;9.200;2023-02-16T01:55:08;25.05;;;13.52;;
295;SDS011;132;48.770;9.200;2023-02-16T01:57:42;25.35;;;13.68;;
295;SDS011;132;48.770;9.200;2023-02-16T02:02:49;25.85;;;13.20;;
295;SDS011;132;48.770;9.200;2023-02-16T02:05:28;27.88;;;12.77;;
295;SDS011;132;48.770;9.200;2023-02-16T02:13:37;20.60;;;11.20;;
295;SDS011;132;48.770;9.200;2023-02-16T02:16:18;26.80;;;13.30;;
295;SDS011;132;48.770;9.200;2023-02-16T02:18:46;28.48;;;12.85;;
295;SDS011;132;48.770;9.200;2023-02-16T02:26:59;24.63;;;12.48;;
295;SDS011;132;48.770;9.200;2023-02-16T02:38:09;28.02;;;14.15;;
295;SDS011;132;48.770;9.200;2023-02-16T02:40:43;25.88;;;13.02;;
295;SDS011;132;48.770;9.200;2023-02-16T02:46:15;23.75;;;13.50;;
295;SDS011;132;48.770;9.200;2023-02-16T02:48:49;22.30;;;12.35;;
295;SDS011;132;48.770;9.200;2023-02-16T02:51:16;25.83;;;12.98;;
295;SDS011;132;48.770;9.200;2023-02-16T02:57:19;21.80;;;11.82;;
295;SDS011;132;48.770;9.200;2023-02-16T03:00:16;22.65;;;12.45;;
295;SDS011;132;48.770;9.200;2023-02-16T03:03:25;23.75;;;12.32;;
295;SDS011;132;48.770;9.200;2023-02-16T03:05:57;22.00;;;12.20;;
295;SDS011;132;48.770;9.200;2023-02-16T03:08:30;24.13;;;11.93;;
295;SDS011;132;48.770;9.200;2023-02-16T03:11:00;21.02;;;11.13;;
295;SDS011;132;48.770;9.200;2023-02-16T03:16:42;19.77;;;10.93;;
295;SDS011;132;48.770;9.200;2023-02-16T03:19:12;17.50;;;9.98;;
295;SDS011;132;48.770;9.200;2023-02-16T03:22:00;20.67;;;10.50;;
295;SDS011;132;48.770;9.200;2023-02-16T03:24:47;20.00;;;9.45;;
295;SDS011;132;48.770;9.200;2023-02-16T03:27:36;19.02;;;10.45;;
295;SDS011;132;48.770;9.200;2023-02-16T03:30:24;18.88;;;10.15;;
295;SDS011;132;48.770;9.200;2023-02-16T03:32:51;18.52;;;9.70;;
295;SDS011;132;48.770;9.200;2023-02-16T03:35:18;18.25;;;10.52;;
295;SDS011;132;48.770;9.200;2023-02-16T03:37:45;23.08;;;10.90;;
295;SDS011;132;48.770;9.200;2023-02-16T03:40:13;19.77;;;10.80;;
295;SDS011;132;48.770;9.200;2023-02-16T03:42:57;24.73;;;11.50;;
295;SDS011;132;48.770;9.200;2023-02-16T03:45:26;22.58;;;11.63;;
295;SDS011;132;48.770;9.200;2023-02-16T03:47:53;20.52;;;12.00;;
295;SDS011;132;48.770;9.200;2023-02-16T03:50:20;22.38;;;11.55;;
295;SDS011;132;48.770;9.200;2023-02-16T03:52:47;21.27;;;11.15;;
295;SDS011;132;48.770;9.200;2023-02-16T03:55:13;22.83;;;11.38;;
295;SDS011;132;48.770;9.200;2023-02-16T03:57:40;19.95;;;10.45;;
295;SDS011;132;48.770;9.200;2023-02-16T04:00:06;17.05;;;10.40;;
295;SDS011;132;48.770;9.200;2023-02-16T04:02:38;19.85;;;10.02;;
295;SDS011;132;48.770;9.200;2023-02-16T04:05:05;22.30;;;11.07;;
295;SDS011;132;48.770;9.200;2023-02-16T04:07:31;22.23;;;9.52;;
295;SDS011;132;48.770;9.200;2023-02-16T04:09:58;22.48;;;10.45;;
295;SDS011;132;48.770;9.200;2023-02-16T04:12:24;19.58;;;10.43;;
295;SDS011;132;48.770;9.200;2023-02-16T04:15:10;18.40;;;10.50;;
295;SDS011;132;48.770;9.200;2023-02-16T04:17:38;19.40;;;10.73;;
295;SDS011;132;48.770;9.200;2023-02-16T04:20:06;18.10;;;9.93;;
295;SDS011;132;48.770;9.200;2023-02-16T04:22:35;18.73;;;10.40;;
295;SDS011;132;48.770;9.200;2023-02-16T04:25:01;21.95;;;10.75;;
295;SDS011;132;48.770;9.200;2023-02-16T04:27:28;19.95;;;10.00;;
295;SDS011;132;48.770;9.200;2023-02-16T04:29:54;19.63;;;10.48;;
295;SDS011;132;48.770;9.200;2023-02-16T04:32:21;18.00;;;9.90;;
295;SDS011;132;48.770;9.200;2023-02-16T04:34:47;20.58;;;10.30;;
295;SDS011;132;48.770;9.200;2023-02-16T04:37:13;18.75;;;9.85;;
295;SDS011;132;48.770;9.200;2023-02-16T04:39:40;18.48;;;9.57;;
295;SDS011;132;48.770;9.200;2023-02-16T04:42:06;22.88;;;11.27;;
295;SDS011;132;48.770;9.200;2023-02-16T04:44:33;20.67;;;9.60;;
295;SDS011;132;48.770;9.200;2023-02-16T04:46:59;19.73;;;10.05;;
295;SDS011;132;48.770;9.200;2023-02-16T04:49:25;25.73;;;11.00;;
295;SDS011;132;48.770;9.200;2023-02-16T04:51:52;19.95;;;10.10;;
295;SDS011;132;48.770;9.200;2023-02-16T04:54:18;22.55;;;11.65;;
295;SDS011;132;48.770;9.200;2023-02-16T04:56:45;18.85;;;9.70;;
295;SDS011;132;48.770;9.200;2023-02-16T04:59:12;20.58;;;9.85;;
295;SDS011;132;48.770;9.200;2023-02-16T05:01:40;18.67;;;10.00;;
295;SDS011;132;48.770;9.200;2023-02-16T05:04:07;18.67;;;9.60;;
295;SDS011;132;48.770;9.200;2023-02-16T05:06:34;21.23;;;10.90;;
295;SDS011;132;48.770;9.200;2023-02-16T05:09:02;18.75;;;9.93;;
295;SDS011;132;48.770;9.200;2023-02-16T05:11:29;20.17;;;10.63;;
295;SDS011;132;48.770;9.200;2023-02-16T05:14:18;20.58;;;10.65;;
295;SDS011;132;48.770;9.200;2023-02-16T05:17:13;21.17;;;10.80;;
295;SDS011;132;48.770;9.200;2023-02-16T05:19:42;21.75;;;10.70;;
295;SDS011;132;48.770;9.200;2023-02-16T05:22:11;19.70;;;10.60;;
295;SDS011;132;48.770;9.200;2023-02-16T05:24:38;17.90;;;9.18;;
295;SDS011;132;48.770;9.200;2023-02-16T05:27:06;16.05;;;9.90;;
295;SDS011;132;48.770;9.200;2023-02-16T05:29:35;16.85;;;10.00;;
295;SDS011;132;48.770;9.200;2023-02-16T05:32:02;17.85;;;9.73;;
295;SDS011;132;48.770;9.200;2023-02-16T05:34:28;18.63;;;9.95;;
295;SDS011;132;48.770;9.200;2023-02-16T05:36:55;18.67;;;10.23;;
295;SDS011;132;48.770;9.200;2023-02-16T05:39:21;22.95;;;10.70;;
295;SDS011;132;48.770;9.200;2023-02-16T05:41:48;26.35;;;11.23;;
295;SDS011;132;48.770;9.200;2023-02-16T05:44:14;19.77;;;10.05;;
295;SDS011;132;48.770;9.200;2023-02-16T05:46:41;16.98;;;10.07;;
295;SDS011;132;48.770;9.200;2023-02-16T05:49:08;21.92;;;10.55;;
295;SDS011;132;48.770;9.200;2023-02-16T05:51:35;20.45;;;11.05;;
295;SDS011;132;48.770;9.200;2023-02-16T05:54:02;22.55;;;10.82;;
295;SDS011;132;48.770;9.200;2023-02-16T05:56:29;20.27;;;10.82;;
295;SDS011;132;48.770;9.200;2023-02-16T05:58:56;24.48;;;11.57;;
295;SDS011;132;48.770;9.200;2023-02-16T06:01:25;21.73;;;11.80;;
295;SDS011;132;48.770;9.200;2023-02-16T06:03:51;27.23;;;11.73;;
295;SDS011;132;48.770;9.200;2023-02-16T06:06:18;22.92;;;11.20;;
295;SDS011;132;48.770;9.200;2023-02-16T06:08:45;25.00;;;11.63;;
295;SDS011;132;48.770;9.200;2023-02-16T06:11:11;26.42;;;12.43;;
295;SDS011;132;48.770;9.200;2023-02-16T06:13:56;25.55;;;11.55;;
295;SDS011;132;48.770;9.200;2023-02-16T06:16:24;22.77;;;12.40;;
295;SDS011;132;48.770;9.200;2023-02-16T06:18:52;21.38;;;11.23;;
295;SDS011;132;48.770;9.200;2023-02-16T06:21:19;20.17;;;10.95;;
295;SDS011;132;48.770;9.200;2023-02-16T06:23:46;22.95;;;11.60;;
295;SDS011;132;48.770;9.200;2023-02-16T06:26:13;24.10;;;12.20;;
295;SDS011;132;48.770;9.200;2023-02-16T06:28:40;25.55;;;13.10;;
295;SDS011;132;48.770;9.200;2023-02-16T06:31:07;24.38;;;12.80;;
295;SDS011;132;48.770;9.200;2023-02-16T06:33:34;23.70;;;12.85;;
295;SDS011;132;48.770;9.200;2023-02-16T06:36:00;34.05;;;16.60;;
295;SDS011;132;48.770;9.200;2023-02-16T06:38:26;28.02;;;15.35;;
295;SDS011;132;48.770;9.200;2023-02-16T06:40:53;27.73;;;15.13;;
295;SDS011;132;48.770;9.200;2023-02-16T06:43:19;26.73;;;13.60;;
295;SDS011;132;48.770;9.200;2023-02-16T06:45:46;28.23;;;14.57;;
295;SDS011;132;48.770;9.200;2023-02-16T06:48:13;30.80;;;14.90;;
295;SDS011;132;48.770;9.200;2023-02-16T06:50:39;25.77;;;13.82;;
295;SDS011;132;48.770;9.200;2023-02-16T06:53:06;29.02;;;13.07;;
295;SDS011;132;48.770;9.200;2023-02-16T06:55:33;24.55;;;13.30;;
295;SDS011;132;48.770;9.200;2023-02-16T06:58:04;23.83;;;13.98;;
295;SDS011;132;48.770;9.200;2023-02-16T07:00:32;21.65;;;11.95;;
295;SDS011;132;48.770;9.200;2023-02-16T07:02:59;23.00;;;11.70;;
295;SDS011;132;48.770;9.200;2023-02-16T07:05:26;32.88;;;13.50;;
295;SDS011;132;48.770;9.200;2023-02-16T07:07:52;23.70;;;12.25;;
295;SDS011;132;48.770;9.200;2023-02-16T07:10:19;25.27;;;12.65;;
295;SDS011;132;48.770;9.200;2023-02-16T07:12:46;24.45;;;11.95;;
295;SDS011;132;48.770;9.200;2023-02-16T07:15:13;23.73;;;11.10;;
295;SDS011;132;48.770;9.200;2023-02-16T07:17:39;22.65;;;12.43;;
295;SDS011;132;48.770;9.200;2023-02-16T07:20:06;27.23;;;11.90;;
295;SDS011;132;48.770;9.200;2023-02-16T07:22:33;24.88;;;12.90;;
295;SDS011;132;48.770;9.200;2023-02-16T07:24:59;20.33;;;11.10;;
295;SDS011;132;48.770;9.200;2023-02-16T07:27:26;21.38;;;12.02;;
295;SDS011;132;48.770;9.200;2023-02-16T07:29:52;20.23;;;12.20;;
295;SDS011;132;48.770;9.200;2023-02-16T07:32:18;23.92;;;11.90;;
295;SDS011;132;48.770;9.200;2023-02-16T07:34:45;21.48;;;11.82;;
295;SDS011;132;48.770;9.200;2023-02-16T07:37:11;22.70;;;11.35;;
295;SDS011;132;48.770;9.200;2023-02-16T07:39:38;21.40;;;11.25;;
295;SDS011;132;48.770;9.200;2023-02-16T07:42:04;24.85;;;12.32;;
295;SDS011;132;48.770;9.200;2023-02-16T07:44:32;23.83;;;11.25;;
295;SDS011;132;48.770;9.200;2023-02-16T07:46:59;25.23;;;12.40;;
295;SDS011;132;48.770;9.200;2023-02-16T07:49:25;22.42;;;12.07;;
295;SDS011;132;48.770;9.200;2023-02-16T07:51:51;21.85;;;11.10;;
295;SDS011;132;48.770;9.200;2023-02-16T07:54:18;26.60;;;12.50;;
295;SDS011;132;48.770;9.200;2023-02-16T07:56:44;25.58;;;12.38;;
295;SDS011;132;48.770;9.200;2023-02-16T07:59:11;23.35;;;13.40;;
295;SDS011;132;48.770;9.200;2023-02-16T08:01:40;26.30;;;12.77;;
295;SDS011;132;48.770;9.200;2023-02-16T08:04:07;25.63;;;12.70;;
295;SDS011;132;48.770;9.200;2023-02-16T08:06:34;21.15;;;12.13;;
295;SDS011;132;48.770;9.200;2023-02-16T08:09:00;27.30;;;13.63;;
295;SDS011;132;48.770;9.200;2023-02-16T08:11:26;23.73;;;12.70;;
295;SDS011;132;48.770;9.200;2023-02-16T08:13:53;24.77;;;13.13;;
295;SDS011;132;48.770;9.200;2023-02-16T08:16:21;27.10;;;13.63;;
295;SDS011;132;48.770;9.200;2023-02-16T08:18:48;24.52;;;13.65;;
295;SDS011;132;48.770;9.200;2023-02-16T08:21:17;21.55;;;12.85;;
295;SDS011;132;48.770;9.200;2023-02-16T08:23:52;27.98;;;12.85;;
295;SDS011;132;48.770;9.200;2023-02-16T08:26:21;25.70;;;13.65;;
295;SDS011;132;48.770;9.200;2023-02-16T08:28:48;24.38;;;13.90;;
295;SDS011;132;48.770;9.200;2023-02-16T08:31:17;24.30;;;14.20;;
295;SDS011;132;48.770;9.200;2023-02-16T08:33:46;27.05;;;14.68;;
295;SDS011;132;48.770;9.200;2023-02-16T08:36:16;24.58;;;14.00;;
295;SDS011;132;48.770;9.200;2023-02-16T08:38:52;23.10;;;13.00;;
295;SDS011;132;48.770;9.200;2023-02-16T08:41:19;25.15;;;13.48;;
295;SDS011;132;48.770;9.200;2023-02-16T08:43:48;25.88;;;12.90;;
295;SDS011;132;48.770;9.200;2023-02-16T08:46:16;28.02;;;12.82;;
295;SDS011;132;48.770;9.200;2023-02-16T08:48:42;25.70;;;12.82;;
295;SDS011;132;48.770;9.200;2023-02-16T08:51:14;23.27;;;13.15;;
295;SDS011;132;48.770;9.200;2023-02-16T08:53:45;26.48;;;13.23;;
295;SDS011;132;48.770;9.200;2023-02-16T08:56:11;22.00;;;13.30;;
295;SDS011;132;48.770;9.200;2023-02-16T08:58:39;24.98;;;13.52;;
295;SDS011;132;48.770;9.200;2023-02-16T09:01:05;25.05;;;13.98;;
295;SDS011;132;48.770;9.200;2023-02-16T09:03:33;29.17;;;15.15;;
295;SDS011;132;48.770;9.200;2023-02-16T09:06:01;27.20;;;14.80;;
295;SDS011;132;48.770;9.200;2023-02-16T09:08:29;26.85;;;14.50;;
295;SDS011;132;48.770;9.200;2023-02-16T09:11:04;27.92;;;14.95;;
295;SDS011;132;48.770;9.200;2023-02-16T09:13:33;30.40;;;16.00;;
295;SDS011;132;48.770;9.200;2023-02-16T09:16:04;30.88;;;16.27;;
295;SDS011;132;48.770;9.200;2023-02-16T09:18:32;37.83;;;15.70;;
295;SDS011;132;48.770;9.200;2023-02-16T09:21:09;32.72;;;14.60;;
295;SDS011;132;48.770;9.200;2023-02-16T09:23:41;23.70;;;12.02;;
295;SDS011;132;48.770;9.200;2023-02-16T09:26:22;21.83;;;11.50;;
295;SDS011;132;48.770;9.200;2023-02-16T09:28:49;20.05;;;9.80;;
295;SDS011;132;48.770;9.200;2023-02-16T09:31:19;18.63;;;9.60;;
295;SDS011;132;48.770;9.200;2023-02-16T09:33:54;13.55;;;8.15;;
295;SDS011;132;48.770;9.200;2023-02-16T09:36:24;21.42;;;8.90;;
295;SDS011;132;48.770;9.200;2023-02-16T09:38:52;16.77;;;9.32;;
295;SDS011;132;48.770;9.200;2023-02-16T09:46:58;15.52;;;9.05;;
295;SDS011;132;48.770;9.200;2023-02-16T09:49:34;14.25;;;8.38;;
295;SDS011;132;48.770;9.200;2023-02-16T09:54:41;17.23;;;8.75;;
295;SDS011;132;48.770;9.200;2023-02-16T09:59:51;15.57;;;8.25;;
295;SDS011;132;48.770;9.200;2023-02-16T10:07:56;14.60;;;8.35;;
295;SDS011;132;48.770;9.200;2023-02-16T10:15:56;14.98;;;8.07;;
295;SDS011;132;48.770;9.200;2023-02-16T10:18:45;13.60;;;7.33;;
295;SDS011;132;48.770;9.200;2023-02-16T10:21:16;17.77;;;7.60;;
295;SDS011;132;48.770;9.200;2023-02-16T10:23:47;14.50;;;7.87;;
295;SDS011;132;48.770;9.200;2023-02-16T10:26:34;13.30;;;7.63;;
295;SDS011;132;48.770;9.200;2023-02-16T10:29:09;13.00;;;7.33;;
295;SDS011;132;48.770;9.200;2023-02-16T10:31:42;12.20;;;7.30;;
295;SDS011;132;48.770;9.200;2023-02-16T10:34:30;12.63;;;7.40;;
295;SDS011;132;48.770;9.200;2023-02-16T10:42:48;11.93;;;7.13;;
295;SDS011;132;48.770;9.200;2023-02-16T10:48:04;11.70;;;6.70;;
295;SDS011;132;48.770;9.200;2023-02-16T10:50:41;10.63;;;6.33;;
295;SDS011;132;48.770;9.200;2023-02-16T10:53:34;12.20;;;6.80;;
295;SDS011;132;48.770;9.200;2023-02-16T10:56:18;11.90;;;6.40;;
295;SDS011;132;48.770;9.200;2023-02-16T10:58:46;11.93;;;6.50;;
295;SDS011;132;48.770;9.200;2023-02-16T11:01:35;12.10;;;7.13;;
295;SDS011;132;48.770;9.200;2023-02-16T11:04:04;11.57;;;6.50;;
295;SDS011;132;48.770;9.200;2023-02-16T11:06:31;11.87;;;6.20;;
295;SDS011;132;48.770;9.200;2023-02-16T11:08:59;12.50;;;6.47;;
295;SDS011;132;48.770;9.200;2023-02-16T11:11:28;11.00;;;6.50;;
295;SDS011;132;48.770;9.200;2023-02-16T11:14:01;12.60;;;6.30;;
295;SDS011;132;48.770;9.200;2023-02-16T11:16:29;12.57;;;6.10;;
295;SDS011;132;48.770;9.200;2023-02-16T11:21:47;13.50;;;6.00;;
295;SDS011;132;48.770;9.200;2023-02-16T11:24:31;11.43;;;6.47;;
295;SDS011;132;48.770;9.200;2023-02-16T11:27:01;14.40;;;6.60;;
295;SDS011;132;48.770;9.200;2023-02-16T11:29:32;12.40;;;6.80;;
295;SDS011;132;48.770;9.200;2023-02-16T11:31:58;9.73;;;5.70;;
295;SDS011;132;48.770;9.200;2023-02-16T11:34:35;11.30;;;6.03;;
295;SDS011;132;48.770;9.200;2023-02-16T11:37:06;15.80;;;6.13;;
295;SDS011;132;48.770;9.200;2023-02-16T11:39:38;11.10;;;6.13;;
295;SDS011;132;48.770;9.200;2023-02-16T11:42:17;11.07;;;6.33;;
295;SDS011;132;48.770;9.200;2023-02-16T11:44:52;8.50;;;5.20;;
295;SDS011;132;48.770;9.200;2023-02-16T11:50:03;19.47;;;9.27;;
295;SDS011;132;48.770;9.200;2023-02-16T11:53:37;22.23;;;10.40;;
295;SDS011;132;48.770;9.200;2023-02-16T11:55:48;24.90;;;10.27;;
295;SDS011;132;48.770;9.200;2023-02-16T11:58:17;17.83;;;10.23;;
295;SDS011;132;48.770;9.200;2023-02-16T12:06:36;20.67;;;10.20;;
295;SDS011;132;48.770;9.200;2023-02-16T12:09:02;18.63;;;9.40;;
295;SDS011;132;48.770;9.200;2023-02-16T12:23:35;18.20;;;9.10;;
295;SDS011;132;48.770;9.200;2023-02-16T12:37:15;21.70;;;9.50;;
295;SDS011;132;48.770;9.200;2023-02-16T12:42:49;18.73;;;8.80;;
295;SDS011;132;48.770;9.200;2023-02-16T12:45:22;24.07;;;9.10;;
295;SDS011;132;48.770;9.200;2023-02-16T12:48:38;20.07;;;10.10;;
295;SDS011;132;48.770;9.200;2023-02-16T12:50:52;23.37;;;8.93;;
295;SDS011;132;48.770;9.200;2023-02-16T12:53:26;16.40;;;7.33;;
295;SDS011;132;48.770;9.200;2023-02-16T12:56:07;11.97;;;7.10;;
295;SDS011;132;48.770;9.200;2023-02-16T12:58:40;15.77;;;7.53;;
295;SDS011;132;48.770;9.200;2023-02-16T13:01:11;15.73;;;7.97;;
295;SDS011;132;48.770;9.200;2023-02-16T13:06:29;16.77;;;8.43;;
295;SDS011;132;48.770;9.200;2023-02-16T13:11:48;17.97;;;8.43;;
295;SDS011;132;48.770;9.200;2023-02-16T13:14:22;14.93;;;8.10;;
295;SDS011;132;48.770;9.200;2023-02-16T13:16:56;15.63;;;8.87;;
295;SDS011;132;48.770;9.200;2023-02-16T13:19:41;15.10;;;8.10;;
295;SDS011;132;48.770;9.200;2023-02-16T13:22:18;22.73;;;8.13;;
295;SDS011;132;48.770;9.200;2023-02-16T13:41:51;13.97;;;8.10;;
295;SDS011;132;48.770;9.200;2023-02-16T13:44:38;17.07;;;8.27;;
295;SDS011;132;48.770;9.200;2023-02-16T13:47:13;15.53;;;8.67;;
295;SDS011;132;48.770;9.200;2023-02-16T13:49:42;15.40;;;8.37;;
295;SDS011;132;48.770;9.200;2023-02-16T13:52:28;16.80;;;8.60;;
295;SDS011;132;48.770;9.200;2023-02-16T13:55:07;15.07;;;8.70;;
295;SDS011;132;48.770;9.200;2023-02-16T13:58:04;19.80;;;8.40;;
295;SDS011;132;48.770;9.200;2023-02-16T14:05:45;15.37;;;7.90;;
295;SDS011;132;48.770;9.200;2023-02-16T14:13:22;15.67;;;9.10;;
295;SDS011;132;48.770;9.200;2023-02-16T14:16:03;19.53;;;8.13;;
295;SDS011;132;48.770;9.200;2023-02-16T14:18:43;15.87;;;8.87;;
295;SDS011;132;48.770;9.200;2023-02-16T14:21:34;18.60;;;9.77;;
295;SDS011;132;48.770;9.200;2023-02-16T14:24:10;14.00;;;8.30;;
295;SDS011;132;48.770;9.200;2023-02-16T14:26:55;14.60;;;8.37;;
295;SDS011;132;48.770;9.200;2023-02-16T14:29:36;18.27;;;9.07;;
295;SDS011;132;48.770;9.200;2023-02-16T14:34:55;17.47;;;9.23;;
295;SDS011;132;48.770;9.200;2023-02-16T14:37:29;19.67;;;9.20;;
295;SDS011;132;48.770;9.200;2023-02-16T14:40:08;17.53;;;8.40;;
295;SDS011;132;48.770;9.200;2023-02-16T14:42:36;19.47;;;9.20;;
295;SDS011;132;48.770;9.200;2023-02-16T14:57:35;15.53;;;8.20;;
295;SDS011;132;48.770;9.200;2023-02-16T15:00:17;13.40;;;8.20;;
295;SDS011;132;48.770;9.200;2023-02-16T15:05:26;14.50;;;8.17;;
295;SDS011;132;48.770;9.200;2023-02-16T15:08:15;14.93;;;8.43;;
295;SDS011;132;48.770;9.200;2023-02-16T15:10:50;14.80;;;7.93;;
295;SDS011;132;48.770;9.200;2023-02-16T15:13:28;12.90;;;7.40;;
295;SDS011;132;48.770;9.200;2023-02-16T15:15:56;15.07;;;7.60;;
295;SDS011;132;48.770;9.200;2023-02-16T15:18:30;12.70;;;7.97;;
295;SDS011;132;48.770;9.200;2023-02-16T15:21:05;17.83;;;7.83;;
295;SDS011;132;48.770;9.200;2023-02-16T15:23:46;18.90;;;7.93;;
295;SDS011;132;48.770;9.200;2023-02-16T15:26:22;13.93;;;8.30;;
295;SDS011;132;48.770;9.200;2023-02-16T15:28:57;20.80;;;8.57;;
295;SDS011;132;48.770;9.200;2023-02-16T15:31:30;15.57;;;7.73;;
295;SDS011;132;48.770;9.200;2023-02-16T15:34:05;15.47;;;8.30;;
295;SDS011;132;48.770;9.200;2023-02-16T15:36:37;12.30;;;7.07;;
295;SDS011;132;48.770;9.200;2023-02-16T15:39:08;13.87;;;7.90;;
295;SDS011;132;48.770;9.200;2023-02-16T15:41:45;14.13;;;7.63;;
295;SDS011;132;48.770;9.200;2023-02-16T15:44:26;19.27;;;7.53;;
295;SDS011;132;48.770;9.200;2023-02-16T15:47:14;19.40;;;7.30;;
295;SDS011;132;48.770;9.200;2023-02-16T15:49:45;16.43;;;7.70;;
295;SDS011;132;48.770;9.200;2023-02-16T15:52:13;14.80;;;6.40;;
295;SDS011;132;48.770;9.200;2023-02-16T15:54:44;9.73;;;5.30;;
295;SDS011;132;48.770;9.200;2023-02-16T15:57:13;11.77;;;5.70;;
295;SDS011;132;48.770;9.200;2023-02-16T15:59:55;8.10;;;4.07;;
295;SDS011;132;48.770;9.200;2023-02-16T16:02:40;10.03;;;4.20;;
295;SDS011;132;48.770;9.200;2023-02-16T16:05:22;10.23;;;4.13;;
295;SDS011;132;48.770;9.200;2023-02-16T16:07:54;10.70;;;4.53;;
295;SDS011;132;48.770;9.200;2023-02-16T16:10:27;6.20;;;4.10;;
295;SDS011;132;48.770;9.200;2023-02-16T16:13:01;7.10;;;3.87;;
295;SDS011;132;48.770;9.200;2023-02-16T16:15:32;6.10;;;3.83;;
295;SDS011;132;48.770;9.200;2023-02-16T16:18:04;13.37;;;3.70;;
295;SDS011;132;48.770;9.200;2023-02-16T16:20:34;7.50;;;3.70;;
295;SDS011;132;48.770;9.200;2023-02-16T16:25:41;6.90;;;4.00;;
295;SDS011;132;48.770;9.200;2023-02-16T16:28:52;8.70;;;3.47;;
295;SDS011;132;48.770;9.200;2023-02-16T16:31:09;8.23;;;3.87;;
295;SDS011;132;48.770;9.200;2023-02-16T16:36:34;10.73;;;4.20;;
295;SDS011;132;48.770;9.200;2023-02-16T16:41:43;8.83;;;4.03;;
295;SDS011;132;48.770;9.200;2023-02-16T16:44:31;8.83;;;4.60;;
295;SDS011;132;48.770;9.200;2023-02-16T16:52:31;10.73;;;4.50;;
295;SDS011;132;48.770;9.200;2023-02-16T16:57:50;9.00;;;4.17;;
295;SDS011;132;48.770;9.200;2023-02-16T17:00:23;6.80;;;4.10;;
295;SDS011;132;48.770;9.200;2023-02-16T17:02:51;7.63;;;3.77;;
295;SDS011;132;48.770;9.200;2023-02-16T17:05:18;13.50;;;4.63;;
295;SDS011;132;48.770;9.200;2023-02-16T17:07:45;9.73;;;3.80;;
295;SDS011;132;48.770;9.200;2023-02-16T17:10:14;6.47;;;3.93;;
295;SDS011;132;48.770;9.200;2023-02-16T17:12:42;7.90;;;4.30;;
295;SDS011;132;48.770;9.200;2023-02-16T17:17:49;13.30;;;4.37;;
295;SDS011;132;48.770;9.200;2023-02-16T17:20:15;8.20;;;4.37;;
295;SDS011;132;48.770;9.200;2023-02-16T17:22:42;6.70;;;4.30;;
295;SDS011;132;48.770;9.200;2023-02-16T17:25:08;11.97;;;6.03;;
295;SDS011;132;48.770;9.200;2023-02-16T17:27:35;16.80;;;6.60;;
295;SDS011;132;48.770;9.200;2023-02-16T17:30:02;10.83;;;6.13;;
295;SDS011;132;48.770;9.200;2023-02-16T17:32:29;10.67;;;5.20;;
295;SDS011;132;48.770;9.200;2023-02-16T17:34:55;7.17;;;4.70;;
295;SDS011;132;48.770;9.200;2023-02-16T17:37:22;9.17;;;5.30;;
295;SDS011;132;48.770;9.200;2023-02-16T17:39:49;10.40;;;5.10;;
295;SDS011;132;48.770;9.200;2023-02-16T17:42:15;9.20;;;4.70;;
295;SDS011;132;48.770;9.200;2023-02-16T17:44:41;8.30;;;4.70;;
295;SDS011;132;48.770;9.200;2023-02-16T17:47:09;12.80;;;5.20;;
295;SDS011;132;48.770;9.200;2023-02-16T17:49:40;7.87;;;4.50;;
295;SDS011;132;48.770;9.200;2023-02-16T17:52:09;8.67;;;4.60;;
295;SDS011;132;48.770;9.200;2023-02-16T17:54:37;5.67;;;4.40;;
295;SDS011;132;48.770;9.200;2023-02-16T17:57:03;7.73;;;4.50;;
295;SDS011;132;48.770;9.200;2023-02-16T17:59:30;9.40;;;6.03;;
295;SDS011;132;48.770;9.200;2023-02-16T18:01:58;11.60;;;5.90;;
295;SDS011;132;48.770;9.200;2023-02-16T18:04:24;13.63;;;5.60;;
295;SDS011;132;48.770;9.200;2023-02-16T18:06:51;9.70;;;5.87;;
295;SDS011;132;48.770;9.200;2023-02-16T18:09:17;13.80;;;6.27;;
295;SDS011;132;48.770;9.200;2023-02-16T18:11:48;9.20;;;5.53;;
295;SDS011;132;48.770;9.200;2023-02-16T18:14:15;7.20;;;4.80;;
295;SDS011;132;48.770;9.200;2023-02-16T18:16:42;6.07;;;4.40;;
295;SDS011;132;48.770;9.200;2023-02-16T18:19:11;9.23;;;4.60;;
295;SDS011;132;48.770;9.200;2023-02-16T18:21:39;9.80;;;4.37;;
295;SDS011;132;48.770;9.200;2023-02-16T18:24:05;7.50;;;4.63;;
295;SDS011;132;48.770;9.200;2023-02-16T18:26:32;8.83;;;4.40;;
295;SDS011;132;48.770;9.200;2023-02-16T18:28:58;11.37;;;5.00;;
295;SDS011;132;48.770;9.200;2023-02-16T18:31:25;6.37;;;4.57;;
295;SDS011;132;48.770;9.200;2023-02-16T18:33:51;8.83;;;4.70;;
295;SDS011;132;48.770;9.200;2023-02-16T18:36:17;10.77;;;5.23;;
295;SDS011;132;48.770;9.200;2023-02-16T18:38:44;5.77;;;4.40;;
295;SDS011;132;48.770;9.200;2023-02-16T18:41:11;7.73;;;4.87;;
295;SDS011;132;48.770;9.200;2023-02-16T18:43:37;7.60;;;4.70;;
295;SDS011;132;48.770;9.200;2023-02-16T18:46:07;8.07;;;4.60;;
295;SDS011;132;48.770;9.200;2023-02-16T18:48:35;8.00;;;4.50;;
295;SDS011;132;48.770;9.200;2023-02-16T18:51:02;8.50;;;4.90;;
295;SDS011;132;48.770;9.200;2023-02-16T18:53:30;6.63;;;4.80;;
295;SDS011;132;48.770;9.200;2023-02-16T18:55:56;9.40;;;5.60;;